sensor_id;sensor_type;location;lat;lon;timestamp;pressure;altitude;pressure_sealevel;temperature;humidity
70971;BME280;58632;51.718;19.446;2022-12-18T00:03:52;101004.95;;;-4.37;100.00
70971;BME280;58632;51.718;19.446;2022-12-18T00:06:19;101000.09;;;-4.42;100.00
70971;BME280;58632;51.718;19.446;2022-12-18T00:08:46;101001.64;;;-4.43;100.00
70971;BME280;58632;51.718;19.446;2022-12-18T00:11:14;101000.08;;;-4.43;100.00
70971;BME280;58632;51.718;19.446;2022-12-18T00:13:40;100997.40;;;-4.43;100.00
70971;BME280;58632;51.718;19.446;2022-12-18T00:16:09;101003.55;;;-4.45;100.00
70971;BME280;58632;51.718;19.446;2022-12-18T00:18:36;101005.77;;;-4.47;100.00
70971;BME280;58632;51.718;19.446;2022-12-18T00:21:04;101005.04;;;-4.51;100.00
70971;BME280;58632;51.718;19.446;2022-12-18T00:23:32;101013.34;;;-4.55;100.00
70971;BME280;58632;51.718;19.446;2022-12-18T00:26:07;101018.52;;;-4.55;100.00
70971;BME280;58632;51.718;19.446;2022-12-18T00:28:33;101024.80;;;-4.53;100.00
70971;BME280;58632;51.718;19.446;2022-12-18T00:31:06;101029.29;;;-4.53;100.00
70971;BME280;58632;51.718;19.446;2022-12-18T00:33:33;101030.99;;;-4.55;100.00
70971;BME280;58632;51.718;19.446;2022-12-18T00:36:07;101033.25;;;-4.56;100.00
70971;BME280;58632;51.718;19.446;2022-12-18T00:38:33;101035.98;;;-4.58;100.00
70971;BME280;58632;51.718;19.446;2022-12-18T00:40:59;101038.90;;;-4.58;100.00
70971;BME280;58632;51.718;19.446;2022-12-18T00:43:25;101043.04;;;-4.52;100.00
70971;BME280;58632;51.718;19.446;2022-12-18T00:45:51;101044.13;;;-4.45;100.00
70971;BME280;58632;51.718;19.446;2022-12-18T00:48:17;101044.67;;;-4.38;100.00
70971;BME280;58632;51.718;19.446;2022-12-18T00:50:42;101048.20;;;-4.33;100.00
70971;BME280;58632;51.718;19.446;2022-12-18T00:53:08;101052.15;;;-4.33;100.00
70971;BME280;58632;51.718;19.446;2022-12-18T00:55:35;101057.54;;;-4.34;100.00
70971;BME280;58632;51.718;19.446;2022-12-18T00:58:00;101056.16;;;-4.33;100.00
70971;BME280;58632;51.718;19.446;2022-12-18T01:00:26;101055.69;;;-4.29;100.00
70971;BME280;58632;51.718;19.446;2022-12-18T01:02:52;101054.30;;;-4.28;100.00
70971;BME280;58632;51.718;19.446;2022-12-18T01:05:18;101056.39;;;-4.29;100.00
70971;BME280;58632;51.718;19.446;2022-12-18T01:07:44;101057.79;;;-4.33;100.00
70971;BME280;58632;51.718;19.446;2022-12-18T01:10:12;101059.98;;;-4.36;100.00
70971;BME280;58632;51.718;19.446;2022-12-18T01:12:38;101058.84;;;-4.41;100.00
70971;BME280;58632;51.718;19.446;2022-12-18T01:15:05;101056.41;;;-4.40;100.00
70971;BME280;58632;51.718;19.446;2022-12-18T01:17:32;101067.84;;;-4.36;100.00
70971;BME280;58632;51.718;19.446;2022-12-18T01:19:58;101070.35;;;-4.38;100.00
70971;BME280;58632;51.718;19.446;2022-12-18T01:22:23;101071.41;;;-4.39;100.00
70971;BME280;58632;51.718;19.446;2022-12-18T01:24:49;101075.44;;;-4.43;100.00
70971;BME280;58632;51.718;19.446;2022-12-18T01:27:15;101076.61;;;-4.45;100.00
70971;BME280;58632;51.718;19.446;2022-12-18T01:29:41;101083.10;;;-4.47;100.00
70971;BME280;58632;51.718;19.446;2022-12-18T01:32:08;101079.96;;;-4.48;100.00
70971;BME280;58632;51.718;19.446;2022-12-18T01:34:37;101085.13;;;-4.46;100.00
70971;BME280;58632;51.718;19.446;2022-12-18T01:37:04;101088.90;;;-4.43;100.00
70971;BME280;58632;51.718;19.446;2022-12-18T01:39:30;101091.04;;;-4.46;100.00
70971;BME280;58632;51.718;19.446;2022-12-18T01:41:58;101094.00;;;-4.51;100.00
70971;BME280;58632;51.718;19.446;2022-12-18T01:50:14;101106.70;;;-4.56;100.00
70971;BME280;58632;51.718;19.446;2022-12-18T01:52:42;101110.71;;;-4.51;100.00
70971;BME280;58632;51.718;19.446;2022-12-18T01:55:09;101108.46;;;-4.49;100.00
70971;BME280;58632;51.718;19.446;2022-12-18T01:57:37;101112.04;;;-4.49;100.00
70971;BME280;58632;51.718;19.446;2022-12-18T02:00:08;101114.11;;;-4.51;100.00
70971;BME280;58632;51.718;19.446;2022-12-18T02:02:34;101118.33;;;-4.51;100.00
70971;BME280;58632;51.718;19.446;2022-12-18T02:05:00;101121.20;;;-4.51;100.00
70971;BME280;58632;51.718;19.446;2022-12-18T02:07:40;101125.19;;;-4.50;100.00
70971;BME280;58632;51.718;19.446;2022-12-18T02:10:24;101131.77;;;-4.50;100.00
70971;BME280;58632;51.718;19.446;2022-12-18T02:15:44;101139.95;;;-4.47;100.00
70971;BME280;58632;51.718;19.446;2022-12-18T02:18:27;101133.68;;;-4.45;100.00
70971;BME280;58632;51.718;19.446;2022-12-18T02:26:51;101145.83;;;-4.51;100.00
70971;BME280;58632;51.718;19.446;2022-12-18T02:29:24;101148.37;;;-4.52;100.00
70971;BME280;58632;51.718;19.446;2022-12-18T02:31:56;101146.73;;;-4.47;100.00
70971;BME280;58632;51.718;19.446;2022-12-18T02:34:26;101152.58;;;-4.42;100.00
70971;BME280;58632;51.718;19.446;2022-12-18T02:36:54;101155.19;;;-4.42;100.00
70971;BME280;58632;51.718;19.446;2022-12-18T02:39:23;101161.33;;;-4.44;100.00
70971;BME280;58632;51.718;19.446;2022-12-18T02:41:50;101161.61;;;-4.44;100.00
70971;BME280;58632;51.718;19.446;2022-12-18T02:44:17;101164.77;;;-4.49;100.00
70971;BME280;58632;51.718;19.446;2022-12-18T02:46:45;101163.35;;;-4.54;100.00
70971;BME280;58632;51.718;19.446;2022-12-18T02:54:36;101188.77;;;-4.58;100.00
70971;BME280;58632;51.718;19.446;2022-12-18T02:57:34;101190.77;;;-4.63;100.00
70971;BME280;58632;51.718;19.446;2022-12-18T03:00:15;101185.83;;;-4.69;100.00
70971;BME280;58632;51.718;19.446;2022-12-18T03:05:17;101181.63;;;-4.71;100.00
70971;BME280;58632;51.718;19.446;2022-12-18T03:07:52;101185.84;;;-4.73;100.00
70971;BME280;58632;51.718;19.446;2022-12-18T03:10:28;101187.64;;;-4.71;100.00
70971;BME280;58632;51.718;19.446;2022-12-18T03:13:02;101187.61;;;-4.66;100.00
70971;BME280;58632;51.718;19.446;2022-12-18T03:15:44;101194.44;;;-4.62;100.00
70971;BME280;58632;51.718;19.446;2022-12-18T03:18:18;101197.38;;;-4.64;100.00
70971;BME280;58632;51.718;19.446;2022-12-18T03:20:47;101201.73;;;-4.68;100.00
70971;BME280;58632;51.718;19.446;2022-12-18T03:23:20;101207.58;;;-4.68;100.00
70971;BME280;58632;51.718;19.446;2022-12-18T03:25:49;101207.66;;;-4.67;100.00
70971;BME280;58632;51.718;19.446;2022-12-18T03:28:21;101217.29;;;-4.67;100.00
70971;BME280;58632;51.718;19.446;2022-12-18T03:30:55;101223.35;;;-4.69;100.00
70971;BME280;58632;51.718;19.446;2022-12-18T03:33:34;101224.48;;;-4.68;100.00
70971;BME280;58632;51.718;19.446;2022-12-18T03:36:03;101228.36;;;-4.66;100.00
70971;BME280;58632;51.718;19.446;2022-12-18T03:38:29;101231.83;;;-4.65;100.00
70971;BME280;58632;51.718;19.446;2022-12-18T03:41:10;101236.72;;;-4.65;100.00
70971;BME280;58632;51.718;19.446;2022-12-18T03:43:54;101241.56;;;-4.60;100.00
70971;BME280;58632;51.718;19.446;2022-12-18T03:46:53;101245.02;;;-4.53;100.00
70971;BME280;58632;51.718;19.446;2022-12-18T03:50:14;101246.36;;;-4.51;100.00
70971;BME280;58632;51.718;19.446;2022-12-18T03:52:38;101245.69;;;-4.49;100.00
70971;BME280;58632;51.718;19.446;2022-12-18T03:55:06;101240.82;;;-4.47;100.00
70971;BME280;58632;51.718;19.446;2022-12-18T03:57:33;101243.77;;;-4.44;100.00
70971;BME280;58632;51.718;19.446;2022-12-18T04:00:19;101244.38;;;-4.38;100.00
70971;BME280;58632;51.718;19.446;2022-12-18T04:02:49;101250.48;;;-4.37;100.00
70971;BME280;58632;51.718;19.446;2022-12-18T04:05:17;101251.45;;;-4.37;100.00
70971;BME280;58632;51.718;19.446;2022-12-18T04:07:47;101259.13;;;-4.43;100.00
70971;BME280;58632;51.718;19.446;2022-12-18T04:10:15;101265.71;;;-4.53;100.00
70971;BME280;58632;51.718;19.446;2022-12-18T04:12:41;101266.88;;;-4.61;100.00
70971;BME280;58632;51.718;19.446;2022-12-18T04:15:08;101269.52;;;-4.63;100.00
70971;BME280;58632;51.718;19.446;2022-12-18T04:17:35;101273.02;;;-4.61;100.00
70971;BME280;58632;51.718;19.446;2022-12-18T04:20:00;101274.83;;;-4.64;100.00
70971;BME280;58632;51.718;19.446;2022-12-18T04:22:27;101277.41;;;-4.66;100.00
70971;BME280;58632;51.718;19.446;2022-12-18T04:24:53;101275.65;;;-4.66;100.00
70971;BME280;58632;51.718;19.446;2022-12-18T04:27:18;101273.46;;;-4.67;100.00
70971;BME280;58632;51.718;19.446;2022-12-18T04:29:44;101272.27;;;-4.71;100.00
70971;BME280;58632;51.718;19.446;2022-12-18T04:32:10;101277.30;;;-4.67;100.00
70971;BME280;58632;51.718;19.446;2022-12-18T04:34:36;101283.93;;;-4.62;100.00
70971;BME280;58632;51.718;19.446;2022-12-18T04:37:02;101291.73;;;-4.58;100.00
70971;BME280;58632;51.718;19.446;2022-12-18T04:39:28;101296.77;;;-4.54;100.00
70971;BME280;58632;51.718;19.446;2022-12-18T04:41:53;101297.32;;;-4.51;100.00
70971;BME280;58632;51.718;19.446;2022-12-18T04:44:19;101302.55;;;-4.52;100.00
70971;BME280;58632;51.718;19.446;2022-12-18T04:46:45;101302.69;;;-4.51;100.00
70971;BME280;58632;51.718;19.446;2022-12-18T04:49:11;101314.19;;;-4.52;100.00
70971;BME280;58632;51.718;19.446;2022-12-18T04:51:38;101315.50;;;-4.55;100.00
70971;BME280;58632;51.718;19.446;2022-12-18T04:54:04;101309.84;;;-4.51;100.00
70971;BME280;58632;51.718;19.446;2022-12-18T04:56:31;101312.34;;;-4.48;100.00
70971;BME280;58632;51.718;19.446;2022-12-18T04:58:56;101319.02;;;-4.49;100.00
70971;BME280;58632;51.718;19.446;2022-12-18T05:01:22;101321.91;;;-4.53;100.00
70971;BME280;58632;51.718;19.446;2022-12-18T05:03:48;101327.19;;;-4.49;100.00
70971;BME280;58632;51.718;19.446;2022-12-18T05:06:14;101323.75;;;-4.50;100.00
70971;BME280;58632;51.718;19.446;2022-12-18T05:08:40;101329.16;;;-4.52;100.00
70971;BME280;58632;51.718;19.446;2022-12-18T05:11:09;101330.66;;;-4.53;100.00
70971;BME280;58632;51.718;19.446;2022-12-18T05:13:35;101329.04;;;-4.54;100.00
70971;BME280;58632;51.718;19.446;2022-12-18T05:16:02;101328.80;;;-4.56;100.00
70971;BME280;58632;51.718;19.446;2022-12-18T05:18:28;101335.57;;;-4.61;100.00
70971;BME280;58632;51.718;19.446;2022-12-18T05:20:54;101341.38;;;-4.57;100.00
70971;BME280;58632;51.718;19.446;2022-12-18T05:23:22;101341.48;;;-4.54;100.00
70971;BME280;58632;51.718;19.446;2022-12-18T05:25:53;101338.67;;;-4.54;100.00
70971;BME280;58632;51.718;19.446;2022-12-18T05:28:19;101338.55;;;-4.54;100.00
70971;BME280;58632;51.718;19.446;2022-12-18T05:30:53;101344.69;;;-4.58;100.00
70971;BME280;58632;51.718;19.446;2022-12-18T05:33:19;101350.05;;;-4.64;100.00
70971;BME280;58632;51.718;19.446;2022-12-18T05:35:50;101349.79;;;-4.68;100.00
70971;BME280;58632;51.718;19.446;2022-12-18T05:38:18;101352.03;;;-4.69;100.00
70971;BME280;58632;51.718;19.446;2022-12-18T05:40:44;101348.34;;;-4.68;100.00
70971;BME280;58632;51.718;19.446;2022-12-18T05:43:10;101347.08;;;-4.61;100.00
70971;BME280;58632;51.718;19.446;2022-12-18T05:45:39;101347.61;;;-4.59;100.00
70971;BME280;58632;51.718;19.446;2022-12-18T05:48:06;101354.67;;;-4.54;100.00
70971;BME280;58632;51.718;19.446;2022-12-18T05:50:36;101356.02;;;-4.52;100.00
70971;BME280;58632;51.718;19.446;2022-12-18T05:53:03;101355.59;;;-4.51;100.00
70971;BME280;58632;51.718;19.446;2022-12-18T05:55:29;101362.34;;;-4.49;100.00
70971;BME280;58632;51.718;19.446;2022-12-18T05:57:54;101364.02;;;-4.50;100.00
70971;BME280;58632;51.718;19.446;2022-12-18T06:00:20;101366.21;;;-4.52;100.00
70971;BME280;58632;51.718;19.446;2022-12-18T06:02:47;101371.51;;;-4.50;100.00
70971;BME280;58632;51.718;19.446;2022-12-18T06:05:13;101365.54;;;-4.48;100.00
70971;BME280;58632;51.718;19.446;2022-12-18T06:07:39;101367.02;;;-4.46;100.00
70971;BME280;58632;51.718;19.446;2022-12-18T06:10:05;101377.25;;;-4.51;100.00
70971;BME280;58632;51.718;19.446;2022-12-18T06:12:31;101377.30;;;-4.54;100.00
70971;BME280;58632;51.718;19.446;2022-12-18T06:14:59;101380.86;;;-4.55;100.00
70971;BME280;58632;51.718;19.446;2022-12-18T06:17:31;101384.84;;;-4.56;100.00
70971;BME280;58632;51.718;19.446;2022-12-18T06:19:57;101388.16;;;-4.59;100.00
70971;BME280;58632;51.718;19.446;2022-12-18T06:22:23;101391.81;;;-4.63;100.00
70971;BME280;58632;51.718;19.446;2022-12-18T06:24:49;101402.23;;;-4.64;100.00
70971;BME280;58632;51.718;19.446;2022-12-18T06:27:14;101405.52;;;-4.64;100.00
70971;BME280;58632;51.718;19.446;2022-12-18T06:29:40;101416.17;;;-4.61;100.00
70971;BME280;58632;51.718;19.446;2022-12-18T06:32:06;101416.45;;;-4.59;100.00
70971;BME280;58632;51.718;19.446;2022-12-18T06:34:32;101421.47;;;-4.56;100.00
70971;BME280;58632;51.718;19.446;2022-12-18T06:36:58;101422.17;;;-4.56;100.00
70971;BME280;58632;51.718;19.446;2022-12-18T06:39:26;101429.94;;;-4.57;100.00
70971;BME280;58632;51.718;19.446;2022-12-18T06:41:52;101436.50;;;-4.58;100.00
70971;BME280;58632;51.718;19.446;2022-12-18T06:44:18;101437.73;;;-4.58;100.00
70971;BME280;58632;51.718;19.446;2022-12-18T06:46:45;101435.44;;;-4.58;100.00
70971;BME280;58632;51.718;19.446;2022-12-18T06:49:11;101444.22;;;-4.60;100.00
70971;BME280;58632;51.718;19.446;2022-12-18T06:51:36;101444.69;;;-4.58;100.00
70971;BME280;58632;51.718;19.446;2022-12-18T06:54:02;101449.48;;;-4.53;100.00
70971;BME280;58632;51.718;19.446;2022-12-18T06:56:28;101455.23;;;-4.52;100.00
70971;BME280;58632;51.718;19.446;2022-12-18T06:58:54;101457.59;;;-4.51;100.00
70971;BME280;58632;51.718;19.446;2022-12-18T07:01:20;101467.17;;;-4.54;100.00
70971;BME280;58632;51.718;19.446;2022-12-18T07:03:47;101475.18;;;-4.49;100.00
70971;BME280;58632;51.718;19.446;2022-12-18T07:06:18;101480.20;;;-4.46;100.00
70971;BME280;58632;51.718;19.446;2022-12-18T07:08:45;101484.59;;;-4.53;100.00
70971;BME280;58632;51.718;19.446;2022-12-18T07:11:11;101479.87;;;-4.53;100.00
70971;BME280;58632;51.718;19.446;2022-12-18T07:13:37;101486.23;;;-4.48;100.00
70971;BME280;58632;51.718;19.446;2022-12-18T07:16:07;101496.05;;;-4.48;100.00
70971;BME280;58632;51.718;19.446;2022-12-18T07:18:33;101500.39;;;-4.50;100.00
70971;BME280;58632;51.718;19.446;2022-12-18T07:21:03;101502.38;;;-4.45;100.00
70971;BME280;58632;51.718;19.446;2022-12-18T07:23:29;101507.30;;;-4.42;100.00
70971;BME280;58632;51.718;19.446;2022-12-18T07:25:55;101507.55;;;-4.42;100.00
70971;BME280;58632;51.718;19.446;2022-12-18T07:28:21;101515.35;;;-4.41;100.00
70971;BME280;58632;51.718;19.446;2022-12-18T07:30:47;101515.70;;;-4.37;100.00
70971;BME280;58632;51.718;19.446;2022-12-18T07:33:13;101514.30;;;-4.29;100.00
70971;BME280;58632;51.718;19.446;2022-12-18T07:35:38;101519.98;;;-4.13;100.00
70971;BME280;58632;51.718;19.446;2022-12-18T07:38:04;101524.33;;;-4.05;100.00
70971;BME280;58632;51.718;19.446;2022-12-18T07:40:30;101527.80;;;-3.95;100.00
70971;BME280;58632;51.718;19.446;2022-12-18T07:42:56;101521.12;;;-3.83;100.00
70971;BME280;58632;51.718;19.446;2022-12-18T07:45:22;101526.20;;;-3.70;100.00
70971;BME280;58632;51.718;19.446;2022-12-18T07:47:47;101521.75;;;-3.61;100.00
70971;BME280;58632;51.718;19.446;2022-12-18T07:50:13;101525.02;;;-3.57;100.00
70971;BME280;58632;51.718;19.446;2022-12-18T07:52:39;101528.61;;;-3.59;100.00
70971;BME280;58632;51.718;19.446;2022-12-18T07:55:05;101534.19;;;-3.58;100.00
70971;BME280;58632;51.718;19.446;2022-12-18T07:57:31;101532.77;;;-3.50;100.00
70971;BME280;58632;51.718;19.446;2022-12-18T07:59:57;101534.00;;;-3.45;100.00
70971;BME280;58632;51.718;19.446;2022-12-18T08:02:23;101538.01;;;-3.36;99.99
70971;BME280;58632;51.718;19.446;2022-12-18T08:04:49;101534.02;;;-3.28;100.00
70971;BME280;58632;51.718;19.446;2022-12-18T08:07:15;101535.20;;;-3.16;100.00
70971;BME280;58632;51.718;19.446;2022-12-18T08:09:40;101540.48;;;-3.08;100.00
70971;BME280;58632;51.718;19.446;2022-12-18T08:12:06;101543.35;;;-3.03;100.00
70971;BME280;58632;51.718;19.446;2022-12-18T08:14:32;101545.45;;;-2.99;99.81
70971;BME280;58632;51.718;19.446;2022-12-18T08:16:58;101550.63;;;-2.98;99.47
70971;BME280;58632;51.718;19.446;2022-12-18T08:19:24;101553.02;;;-3.01;99.12
70971;BME280;58632;51.718;19.446;2022-12-18T08:21:50;101555.71;;;-3.10;97.98
70971;BME280;58632;51.718;19.446;2022-12-18T08:24:15;101556.85;;;-3.15;97.48
70971;BME280;58632;51.718;19.446;2022-12-18T08:26:41;101560.67;;;-3.30;96.30
70971;BME280;58632;51.718;19.446;2022-12-18T08:29:08;101567.04;;;-3.48;96.84
70971;BME280;58632;51.718;19.446;2022-12-18T08:31:34;101570.02;;;-3.53;98.01
70971;BME280;58632;51.718;19.446;2022-12-18T08:33:59;101575.21;;;-3.59;97.73
70971;BME280;58632;51.718;19.446;2022-12-18T08:36:25;101576.46;;;-3.66;98.67
70971;BME280;58632;51.718;19.446;2022-12-18T08:38:52;101572.48;;;-3.60;99.69
70971;BME280;58632;51.718;19.446;2022-12-18T08:41:18;101570.79;;;-3.49;99.78
70971;BME280;58632;51.718;19.446;2022-12-18T08:43:44;101573.34;;;-3.39;99.54
70971;BME280;58632;51.718;19.446;2022-12-18T08:46:34;101573.63;;;-3.30;99.40
70971;BME280;58632;51.718;19.446;2022-12-18T08:49:00;101570.83;;;-3.27;98.07
70971;BME280;58632;51.718;19.446;2022-12-18T08:51:25;101577.90;;;-3.24;97.62
70971;BME280;58632;51.718;19.446;2022-12-18T08:53:51;101583.09;;;-3.28;96.69
70971;BME280;58632;51.718;19.446;2022-12-18T08:56:17;101586.95;;;-3.26;97.78
70971;BME280;58632;51.718;19.446;2022-12-18T08:58:43;101592.14;;;-3.22;97.68
70971;BME280;58632;51.718;19.446;2022-12-18T09:01:10;101594.64;;;-3.14;98.05
70971;BME280;58632;51.718;19.446;2022-12-18T09:03:37;101593.32;;;-3.04;98.26
70971;BME280;58632;51.718;19.446;2022-12-18T09:06:03;101601.45;;;-2.92;98.38
70971;BME280;58632;51.718;19.446;2022-12-18T09:08:29;101607.52;;;-2.87;97.13
70971;BME280;58632;51.718;19.446;2022-12-18T09:10:55;101609.52;;;-2.83;96.75
70971;BME280;58632;51.718;19.446;2022-12-18T09:13:22;101611.48;;;-2.81;95.88
70971;BME280;58632;51.718;19.446;2022-12-18T09:15:50;101617.40;;;-2.71;95.73
70971;BME280;58632;51.718;19.446;2022-12-18T09:18:17;101619.20;;;-2.62;95.17
70971;BME280;58632;51.718;19.446;2022-12-18T09:20:44;101615.23;;;-2.54;95.80
70971;BME280;58632;51.718;19.446;2022-12-18T09:23:11;101612.95;;;-2.41;96.01
70971;BME280;58632;51.718;19.446;2022-12-18T09:25:38;101616.69;;;-2.29;95.82
70971;BME280;58632;51.718;19.446;2022-12-18T09:28:15;101620.64;;;-2.29;94.18
70971;BME280;58632;51.718;19.446;2022-12-18T09:30:43;101627.96;;;-2.33;93.05
70971;BME280;58632;51.718;19.446;2022-12-18T09:33:09;101623.20;;;-2.47;91.66
70971;BME280;58632;51.718;19.446;2022-12-18T09:35:39;101627.39;;;-2.52;92.24
70971;BME280;58632;51.718;19.446;2022-12-18T09:38:05;101628.16;;;-2.49;93.06
70971;BME280;58632;51.718;19.446;2022-12-18T09:40:36;101625.66;;;-2.52;92.60
70971;BME280;58632;51.718;19.446;2022-12-18T09:43:05;101631.76;;;-2.54;92.60
70971;BME280;58632;51.718;19.446;2022-12-18T09:45:40;101633.41;;;-2.62;91.84
70971;BME280;58632;51.718;19.446;2022-12-18T09:48:29;101627.13;;;-2.62;92.16
70971;BME280;58632;51.718;19.446;2022-12-18T09:51:00;101627.76;;;-2.65;91.42
70971;BME280;58632;51.718;19.446;2022-12-18T09:53:31;101625.64;;;-2.62;91.62
70971;BME280;58632;51.718;19.446;2022-12-18T09:55:59;101620.98;;;-2.62;91.64
70971;BME280;58632;51.718;19.446;2022-12-18T09:58:31;101626.30;;;-2.63;91.32
70971;BME280;58632;51.718;19.446;2022-12-18T10:01:00;101626.20;;;-2.64;91.95
70971;BME280;58632;51.718;19.446;2022-12-18T10:03:26;101625.27;;;-2.70;91.56
70971;BME280;58632;51.718;19.446;2022-12-18T10:08:34;101628.80;;;-2.68;92.12
70971;BME280;58632;51.718;19.446;2022-12-18T10:19:29;101620.09;;;-2.48;90.49
70971;BME280;58632;51.718;19.446;2022-12-18T10:22:36;101621.09;;;-2.47;90.73
70971;BME280;58632;51.718;19.446;2022-12-18T10:27:42;101618.73;;;-2.48;90.33
70971;BME280;58632;51.718;19.446;2022-12-18T10:30:19;101615.34;;;-2.47;90.32
70971;BME280;58632;51.718;19.446;2022-12-18T10:32:45;101616.64;;;-2.58;88.57
70971;BME280;58632;51.718;19.446;2022-12-18T10:35:18;101620.08;;;-2.65;88.53
70971;BME280;58632;51.718;19.446;2022-12-18T10:40:29;101623.42;;;-2.72;88.90
70971;BME280;58632;51.718;19.446;2022-12-18T10:43:11;101631.38;;;-2.70;89.55
70971;BME280;58632;51.718;19.446;2022-12-18T10:45:37;101632.48;;;-2.55;90.84
70971;BME280;58632;51.718;19.446;2022-12-18T10:48:03;101631.38;;;-2.42;90.76
70971;BME280;58632;51.718;19.446;2022-12-18T10:50:33;101630.93;;;-2.37;89.71
70971;BME280;58632;51.718;19.446;2022-12-18T10:53:02;101633.70;;;-2.33;89.83
70971;BME280;58632;51.718;19.446;2022-12-18T10:55:37;101634.48;;;-2.34;89.45
70971;BME280;58632;51.718;19.446;2022-12-18T10:58:32;101634.11;;;-2.20;89.47
70971;BME280;58632;51.718;19.446;2022-12-18T11:01:02;101626.14;;;-2.16;88.73
70971;BME280;58632;51.718;19.446;2022-12-18T11:03:33;101630.35;;;-2.20;88.05
70971;BME280;58632;51.718;19.446;2022-12-18T11:06:05;101636.68;;;-2.27;87.61
70971;BME280;58632;51.718;19.446;2022-12-18T11:08:32;101635.27;;;-2.42;87.13
70971;BME280;58632;51.718;19.446;2022-12-18T11:10:57;101634.31;;;-2.50;87.62
70971;BME280;58632;51.718;19.446;2022-12-18T11:13:26;101634.47;;;-2.62;87.35
70971;BME280;58632;51.718;19.446;2022-12-18T11:15:53;101637.59;;;-2.64;87.69
70971;BME280;58632;51.718;19.446;2022-12-18T11:18:34;101637.22;;;-2.59;88.36
70971;BME280;58632;51.718;19.446;2022-12-18T11:21:11;101628.20;;;-2.53;89.42
70971;BME280;58632;51.718;19.446;2022-12-18T11:23:50;101627.35;;;-2.44;89.34
70971;BME280;58632;51.718;19.446;2022-12-18T11:26:16;101633.27;;;-2.39;88.71
70971;BME280;58632;51.718;19.446;2022-12-18T11:28:51;101629.25;;;-2.41;88.49
70971;BME280;58632;51.718;19.446;2022-12-18T11:34:02;101624.29;;;-2.41;88.40
70971;BME280;58632;51.718;19.446;2022-12-18T11:36:37;101624.23;;;-2.45;87.96
70971;BME280;58632;51.718;19.446;2022-12-18T11:39:21;101625.89;;;-2.46;87.74
70971;BME280;58632;51.718;19.446;2022-12-18T11:41:54;101627.00;;;-2.42;87.95
70971;BME280;58632;51.718;19.446;2022-12-18T11:50:00;101626.05;;;-2.31;88.12
70971;BME280;58632;51.718;19.446;2022-12-18T11:52:38;101626.45;;;-2.28;88.07
70971;BME280;58632;51.718;19.446;2022-12-18T11:55:14;101620.23;;;-2.39;87.27
70971;BME280;58632;51.718;19.446;2022-12-18T12:00:36;101622.06;;;-2.75;85.53
70971;BME280;58632;51.718;19.446;2022-12-18T12:03:27;101625.56;;;-2.86;86.19
70971;BME280;58632;51.718;19.446;2022-12-18T12:06:16;101627.96;;;-3.06;87.02
70971;BME280;58632;51.718;19.446;2022-12-18T12:11:30;101644.36;;;-3.14;88.77
70971;BME280;58632;51.718;19.446;2022-12-18T12:14:17;101646.50;;;-3.07;89.00
70971;BME280;58632;51.718;19.446;2022-12-18T12:16:58;101650.38;;;-3.11;88.27
70971;BME280;58632;51.718;19.446;2022-12-18T12:19:53;101647.59;;;-3.13;88.31
70971;BME280;58632;51.718;19.446;2022-12-18T12:22:43;101651.52;;;-3.22;87.79
70971;BME280;58632;51.718;19.446;2022-12-18T12:25:21;101655.70;;;-3.38;87.88
70971;BME280;58632;51.718;19.446;2022-12-18T12:28:11;101654.02;;;-3.37;88.85
70971;BME280;58632;51.718;19.446;2022-12-18T12:39:06;101661.96;;;-3.41;89.08
70971;BME280;58632;51.718;19.446;2022-12-18T12:41:34;101672.25;;;-3.66;88.21
70971;BME280;58632;51.718;19.446;2022-12-18T12:44:27;101682.07;;;-3.78;89.60
70971;BME280;58632;51.718;19.446;2022-12-18T12:46:58;101683.96;;;-3.78;90.52
70971;BME280;58632;51.718;19.446;2022-12-18T12:49:28;101685.92;;;-3.71;91.13
70971;BME280;58632;51.718;19.446;2022-12-18T12:52:07;101696.38;;;-3.72;90.37
70971;BME280;58632;51.718;19.446;2022-12-18T12:54:36;101694.27;;;-3.84;89.78
70971;BME280;58632;51.718;19.446;2022-12-18T12:57:06;101690.75;;;-3.94;89.52
70971;BME280;58632;51.718;19.446;2022-12-18T12:59:56;101692.73;;;-4.05;89.93
70971;BME280;58632;51.718;19.446;2022-12-18T13:03:14;101690.41;;;-4.20;90.11
70971;BME280;58632;51.718;19.446;2022-12-18T13:06:07;101691.27;;;-4.44;90.50
70971;BME280;58632;51.718;19.446;2022-12-18T13:08:23;101695.58;;;-4.67;91.23
70971;BME280;58632;51.718;19.446;2022-12-18T13:10:49;101688.61;;;-4.79;92.48
70971;BME280;58632;51.718;19.446;2022-12-18T13:13:15;101690.73;;;-4.82;93.02
70971;BME280;58632;51.718;19.446;2022-12-18T13:15:46;101694.59;;;-4.86;93.55
70971;BME280;58632;51.718;19.446;2022-12-18T13:18:19;101690.09;;;-4.91;94.18
70971;BME280;58632;51.718;19.446;2022-12-18T13:20:49;101689.29;;;-4.93;93.96
70971;BME280;58632;51.718;19.446;2022-12-18T13:23:26;101691.10;;;-5.03;94.04
70971;BME280;58632;51.718;19.446;2022-12-18T13:25:54;101694.26;;;-5.07;94.51
70971;BME280;58632;51.718;19.446;2022-12-18T13:36:37;101701.55;;;-5.12;95.20
70971;BME280;58632;51.718;19.446;2022-12-18T13:41:40;101703.61;;;-5.30;96.63
70971;BME280;58632;51.718;19.446;2022-12-18T13:44:24;101710.59;;;-5.34;97.04
70971;BME280;58632;51.718;19.446;2022-12-18T13:46:51;101714.81;;;-5.27;97.12
70971;BME280;58632;51.718;19.446;2022-12-18T13:49:38;101714.58;;;-5.26;96.66
70971;BME280;58632;51.718;19.446;2022-12-18T13:52:24;101710.09;;;-5.36;96.22
70971;BME280;58632;51.718;19.446;2022-12-18T13:54:59;101715.20;;;-5.37;97.26
70971;BME280;58632;51.718;19.446;2022-12-18T13:57:37;101723.83;;;-5.36;97.04
70971;BME280;58632;51.718;19.446;2022-12-18T14:03:01;101727.39;;;-5.39;97.28
70971;BME280;58632;51.718;19.446;2022-12-18T14:05:33;101729.43;;;-5.45;97.30